createdAt,value
2018-07-10T00:00:23.700Z,85.37
2018-07-10T00:00:54.932Z,85.42
2018-07-10T00:01:26.163Z,85.19
2018-07-10T00:01:57.419Z,85.54
2018-07-10T00:02:28.614Z,84.94
2018-07-10T00:02:59.801Z,85.21
2018-07-10T00:03:30.992Z,84.89
2018-07-10T00:04:02.169Z,84.85
2018-07-10T00:04:33.448Z,84.67
2018-07-10T00:05:04.632Z,84.75
2018-07-10T00:05:35.866Z,84.38
2018-07-10T00:06:07.112Z,84.63
2018-07-10T00:06:38.297Z,84.86
2018-07-10T00:07:09.471Z,84.74
2018-07-10T00:07:40.650Z,84.66
2018-07-10T00:08:11.839Z,84.99
2018-07-10T00:08:43.101Z,84.80
2018-07-10T00:09:14.272Z,83.97
2018-07-10T00:09:45.468Z,85.03
2018-07-10T00:10:16.652Z,84.99
2018-07-10T00:10:47.892Z,85.23
2018-07-10T00:11:19.134Z,85.28
2018-07-10T00:11:50.375Z,84.72
2018-07-10T00:12:21.625Z,85.28
2018-07-10T00:12:52.789Z,84.63
2018-07-10T00:13:24.021Z,84.91
2018-07-10T00:13:55.196Z,84.26
2018-07-10T00:14:26.368Z,84.22
2018-07-10T00:14:57.540Z,84.00
2018-07-10T00:15:28.720Z,83.87
2018-07-10T00:15:59.905Z,84.57
2018-07-10T00:16:31.083Z,84.69
2018-07-10T00:17:02.272Z,84.03
2018-07-10T00:17:33.512Z,83.68
2018-07-10T00:18:04.707Z,84.09
2018-07-10T00:18:35.979Z,83.82
2018-07-10T00:19:07.168Z,84.37
2018-07-10T00:19:38.348Z,84.35
2018-07-10T00:20:09.525Z,84.06
2018-07-10T00:20:40.762Z,84.55
2018-07-10T00:21:11.949Z,83.88
2018-07-10T00:21:43.130Z,83.47
2018-07-10T00:22:14.311Z,83.58
2018-07-10T00:22:45.589Z,84.07
2018-07-10T00:23:16.765Z,83.87
2018-07-10T00:23:47.940Z,84.18
2018-07-10T00:24:19.164Z,84.35
2018-07-10T00:24:50.396Z,84.69
2018-07-10T00:25:21.607Z,84.30
2018-07-10T00:25:52.796Z,84.75
2018-07-10T00:26:23.969Z,85.22
2018-07-10T00:26:55.147Z,85.19
2018-07-10T00:27:26.334Z,85.20
2018-07-10T00:27:57.561Z,85.08
2018-07-10T00:28:28.741Z,85.68
2018-07-10T00:28:59.966Z,85.12
2018-07-10T00:29:31.161Z,85.31
2018-07-10T00:30:02.393Z,85.62
2018-07-10T00:30:33.589Z,85.73
2018-07-10T00:31:04.756Z,85.58
2018-07-10T00:31:35.991Z,86.16
2018-07-10T00:32:07.233Z,86.64
2018-07-10T00:32:38.422Z,86.60
2018-07-10T00:33:09.629Z,86.73
2018-07-10T00:33:40.797Z,86.67
2018-07-10T00:34:12.006Z,86.78
2018-07-10T00:34:43.184Z,87.33
2018-07-10T00:35:14.366Z,87.14
2018-07-10T00:35:45.599Z,87.14
2018-07-10T00:36:16.786Z,87.29
2018-07-10T00:36:47.962Z,87.06
2018-07-10T00:37:19.188Z,86.45
2018-07-10T00:37:50.408Z,87.01
2018-07-10T00:38:21.600Z,87.06
2018-07-10T00:38:52.765Z,86.65
2018-07-10T00:39:23.980Z,87.15
2018-07-10T00:39:55.156Z,87.10
2018-07-10T00:40:26.332Z,86.34
2018-07-10T00:40:57.508Z,86.91
2018-07-10T00:41:28.687Z,86.76
2018-07-10T00:41:59.868Z,86.42
2018-07-10T00:42:33.167Z,85.76
2018-07-10T00:43:04.359Z,85.82
2018-07-10T00:43:35.617Z,85.11
2018-07-10T00:44:06.926Z,85.19
2018-07-10T00:44:38.100Z,85.85
2018-07-10T00:45:09.277Z,85.31
2018-07-10T00:45:40.464Z,85.78
2018-07-10T00:46:11.637Z,85.90
2018-07-10T00:46:42.809Z,85.48
2018-07-10T00:47:14.033Z,86.07
2018-07-10T00:47:45.220Z,85.67
2018-07-10T00:48:17.132Z,85.45
2018-07-10T00:48:49.148Z,85.72
2018-07-10T00:49:20.330Z,85.99
2018-07-10T00:49:51.561Z,86.38
2018-07-10T00:50:22.768Z,85.36
2018-07-10T00:50:53.944Z,85.31
2018-07-10T00:51:25.152Z,85.35
2018-07-10T00:51:56.328Z,85.08
2018-07-10T00:52:27.504Z,84.94
2018-07-10T00:52:58.700Z,85.15
2018-07-10T00:53:30.878Z,85.16
2018-07-10T00:54:02.104Z,85.05
2018-07-10T00:54:33.282Z,85.04
2018-07-10T00:55:04.452Z,84.82
2018-07-10T00:55:35.629Z,84.98
2018-07-10T00:56:06.878Z,84.23
2018-07-10T00:56:38.117Z,83.69
2018-07-10T00:57:09.354Z,84.25
2018-07-10T00:57:40.590Z,84.65
2018-07-10T00:58:11.788Z,84.20
2018-07-10T00:58:42.967Z,83.96
2018-07-10T00:59:14.189Z,84.62
2018-07-10T00:59:45.384Z,84.25
2018-07-10T01:00:16.553Z,84.57
2018-07-10T01:00:48.395Z,83.80
2018-07-10T01:01:19.583Z,84.25
2018-07-10T01:01:50.762Z,85.10
2018-07-10T01:02:21.956Z,84.79
2018-07-10T01:02:53.197Z,85.29
2018-07-10T01:03:24.392Z,84.56
2018-07-10T01:03:55.575Z,84.84
2018-07-10T01:04:26.869Z,84.78
2018-07-10T01:04:58.708Z,85.52
2018-07-10T01:05:29.881Z,85.39
2018-07-10T01:06:01.062Z,84.88
2018-07-10T01:06:32.238Z,85.24
2018-07-10T01:07:03.476Z,84.68
2018-07-10T01:07:34.665Z,84.64
2018-07-10T01:08:05.860Z,84.49
2018-07-10T01:08:37.033Z,84.68
2018-07-10T01:09:08.220Z,84.48
2018-07-10T01:09:39.483Z,84.29
2018-07-10T01:10:10.729Z,84.42
2018-07-10T01:10:41.916Z,84.17
2018-07-10T01:11:13.088Z,83.74
2018-07-10T01:11:44.265Z,83.91
2018-07-10T01:12:15.484Z,83.83
2018-07-10T01:12:46.709Z,84.08
2018-07-10T01:13:17.912Z,84.65
2018-07-10T01:13:49.088Z,84.53
2018-07-10T01:14:20.323Z,83.74
2018-07-10T01:14:51.604Z,84.16
2018-07-10T01:15:22.831Z,84.03
2018-07-10T01:15:54.018Z,84.30
2018-07-10T01:16:25.210Z,84.32
2018-07-10T01:16:56.380Z,84.33
2018-07-10T01:17:27.666Z,83.91
2018-07-10T01:17:58.852Z,83.81
2018-07-10T01:18:30.033Z,83.84
2018-07-10T01:19:01.271Z,84.25
2018-07-10T01:19:32.421Z,84.13
2018-07-10T01:20:03.610Z,83.98
2018-07-10T01:20:34.827Z,84.05
2018-07-10T01:21:06.017Z,84.58
2018-07-10T01:21:37.249Z,84.83
2018-07-10T01:22:08.484Z,84.80
2018-07-10T01:22:39.676Z,84.13
2018-07-10T01:23:10.921Z,84.17
2018-07-10T01:23:42.105Z,84.71
2018-07-10T01:24:13.284Z,84.73
2018-07-10T01:24:44.454Z,84.34
2018-07-10T01:25:15.640Z,84.15
2018-07-10T01:25:46.879Z,83.91
2018-07-10T01:26:18.053Z,83.26
2018-07-10T01:26:49.285Z,83.86
2018-07-10T01:27:20.529Z,83.64
2018-07-10T01:27:51.726Z,83.66
2018-07-10T01:28:22.907Z,84.07
2018-07-10T01:28:54.089Z,83.83
2018-07-10T01:29:25.267Z,83.47
2018-07-10T01:29:56.446Z,84.07
2018-07-10T01:30:27.664Z,83.56
2018-07-10T01:30:58.896Z,84.01
2018-07-10T01:31:30.091Z,83.83
2018-07-10T01:32:01.277Z,84.19
2018-07-10T01:32:32.453Z,83.21
2018-07-10T01:33:03.681Z,83.64
2018-07-10T01:33:34.966Z,82.72
2018-07-10T01:34:06.164Z,82.06
2018-07-10T01:34:37.379Z,81.96
2018-07-10T01:35:08.576Z,82.86
2018-07-10T01:35:39.857Z,82.70
2018-07-10T01:36:11.041Z,82.84
2018-07-10T01:36:42.277Z,83.16
2018-07-10T01:37:13.470Z,83.17
2018-07-10T01:37:44.662Z,83.20
2018-07-10T01:38:15.843Z,83.39
2018-07-10T01:38:47.013Z,82.94
2018-07-10T01:39:18.202Z,83.53
2018-07-10T01:39:49.390Z,83.70
2018-07-10T01:40:20.653Z,82.71
2018-07-10T01:40:51.831Z,81.92
2018-07-10T01:41:23.057Z,82.21
2018-07-10T01:41:54.254Z,83.01
2018-07-10T01:42:25.505Z,83.34
2018-07-10T01:42:56.801Z,83.95
2018-07-10T01:43:28.041Z,83.62
2018-07-10T01:43:59.278Z,83.69
2018-07-10T01:44:30.473Z,83.25
2018-07-10T01:45:01.713Z,83.02
2018-07-10T01:45:32.949Z,82.98
2018-07-10T01:46:04.133Z,82.76
2018-07-10T01:46:35.384Z,83.09
2018-07-10T01:47:06.620Z,82.14
2018-07-10T01:47:37.858Z,81.50
2018-07-10T01:48:09.141Z,82.34
2018-07-10T01:48:40.324Z,82.01
2018-07-10T01:49:11.500Z,81.46
2018-07-10T01:49:42.676Z,81.24
2018-07-10T01:50:13.903Z,80.49
2018-07-10T01:50:45.078Z,81.40
2018-07-10T01:51:16.267Z,81.93
2018-07-10T01:51:47.506Z,81.46
2018-07-10T01:52:18.703Z,80.85
2018-07-10T01:52:49.883Z,81.45
2018-07-10T01:53:21.056Z,81.75
2018-07-10T01:53:52.259Z,81.40
2018-07-10T01:54:23.493Z,81.51
2018-07-10T01:54:54.725Z,81.05
2018-07-10T01:55:26.001Z,81.41
2018-07-10T01:55:57.192Z,81.17
2018-07-10T01:56:28.382Z,81.15
2018-07-10T01:56:59.593Z,82.00
2018-07-10T01:57:30.826Z,81.67
2018-07-10T01:58:02.061Z,81.71
2018-07-10T01:58:33.262Z,81.54
2018-07-10T01:59:04.493Z,81.70
2018-07-10T01:59:35.675Z,81.86
2018-07-10T02:00:06.840Z,81.99
2018-07-10T02:00:38.117Z,82.28
2018-07-10T02:01:09.405Z,81.59
2018-07-10T02:01:40.588Z,81.68
2018-07-10T02:02:11.764Z,81.22
2018-07-10T02:02:43.664Z,81.35
2018-07-10T02:03:14.852Z,81.43
2018-07-10T02:03:46.077Z,81.61
2018-07-10T02:04:17.303Z,82.06
2018-07-10T02:04:48.757Z,81.90
2018-07-10T02:05:19.951Z,81.77
2018-07-10T02:05:51.194Z,81.53
2018-07-10T02:06:22.382Z,81.18
2018-07-10T02:06:53.600Z,82.02
2018-07-10T02:07:24.775Z,81.35
2018-07-10T02:07:55.944Z,82.00
2018-07-10T02:08:27.128Z,82.12
2018-07-10T02:08:58.353Z,81.46
2018-07-10T02:09:29.529Z,81.42
2018-07-10T02:10:00.712Z,81.54
2018-07-10T02:10:31.883Z,81.48
2018-07-10T02:11:03.099Z,81.51
2018-07-10T02:11:34.274Z,81.47
2018-07-10T02:12:05.444Z,81.47
2018-07-10T02:12:36.672Z,82.04
2018-07-10T02:13:07.905Z,81.81
2018-07-10T02:13:39.096Z,81.72
2018-07-10T02:14:10.348Z,82.06
2018-07-10T02:14:41.487Z,82.35
2018-07-10T02:15:12.713Z,82.45
2018-07-10T02:15:43.897Z,82.10
2018-07-10T02:16:15.179Z,82.56
2018-07-10T02:16:46.442Z,82.19
2018-07-10T02:17:17.680Z,81.34
2018-07-10T02:17:48.912Z,81.23
2018-07-10T02:18:20.097Z,81.85
2018-07-10T02:18:51.320Z,81.96
2018-07-10T02:19:22.549Z,81.92
2018-07-10T02:19:53.745Z,82.40
2018-07-10T02:20:24.986Z,81.87
2018-07-10T02:20:56.184Z,82.57
2018-07-10T02:21:27.396Z,82.36
2018-07-10T02:21:58.572Z,82.57
2018-07-10T02:22:29.744Z,82.99
2018-07-10T02:23:01.009Z,83.29
2018-07-10T02:23:32.200Z,83.10
2018-07-10T02:24:03.373Z,82.95
2018-07-10T02:24:34.604Z,82.91
2018-07-10T02:25:05.788Z,83.00
2018-07-10T02:25:36.965Z,82.67
2018-07-10T02:26:08.262Z,82.75
2018-07-10T02:26:39.448Z,82.65
2018-07-10T02:27:10.616Z,82.83
2018-07-10T02:27:41.850Z,83.02
2018-07-10T02:28:13.025Z,83.28
2018-07-10T02:28:44.196Z,83.72
2018-07-10T02:29:15.367Z,83.19
2018-07-10T02:29:46.598Z,84.13
2018-07-10T02:30:17.785Z,83.76
2018-07-10T02:30:48.954Z,84.49
2018-07-10T02:31:20.221Z,84.23
2018-07-10T02:31:51.458Z,85.04
2018-07-10T02:32:22.712Z,84.83
2018-07-10T02:32:54.488Z,85.20
2018-07-10T02:33:25.671Z,84.92
2018-07-10T02:33:56.876Z,85.24
2018-07-10T02:34:28.066Z,85.24
2018-07-10T02:34:59.270Z,85.36
2018-07-10T02:35:30.493Z,85.19
2018-07-10T02:36:01.673Z,84.98
2018-07-10T02:36:32.850Z,84.86
2018-07-10T02:37:04.091Z,85.46
2018-07-10T02:37:35.339Z,85.50
2018-07-10T02:38:06.581Z,85.66
2018-07-10T02:38:37.761Z,86.25
2018-07-10T02:39:08.976Z,85.98
2018-07-10T02:39:40.162Z,86.34
2018-07-10T02:40:11.335Z,86.26
2018-07-10T02:40:42.510Z,86.27
2018-07-10T02:41:13.989Z,85.67
2018-07-10T02:41:45.176Z,85.40
2018-07-10T02:42:16.969Z,85.27
2018-07-10T02:42:48.161Z,85.19
2018-07-10T02:43:19.384Z,85.82
2018-07-10T02:43:50.553Z,85.19
2018-07-10T02:44:21.744Z,85.46
2018-07-10T02:44:52.933Z,85.50
2018-07-10T02:45:24.116Z,85.45
2018-07-10T02:45:55.375Z,84.77
2018-07-10T02:46:26.564Z,85.26
2018-07-10T02:46:57.739Z,85.43
2018-07-10T02:47:28.912Z,85.30
2018-07-10T02:48:00.085Z,84.87
2018-07-10T02:48:31.307Z,84.86
2018-07-10T02:49:02.477Z,85.63
2018-07-10T02:49:33.737Z,85.00
2018-07-10T02:50:04.951Z,85.38
2018-07-10T02:50:36.173Z,85.68
2018-07-10T02:51:07.437Z,84.88
2018-07-10T02:51:38.631Z,84.87
2018-07-10T02:52:09.866Z,85.46
2018-07-10T02:52:41.072Z,85.69
2018-07-10T02:53:12.292Z,85.63
2018-07-10T02:53:43.514Z,85.31
2018-07-10T02:54:14.732Z,84.94
2018-07-10T02:54:45.935Z,84.99
2018-07-10T02:55:17.121Z,84.99
2018-07-10T02:55:48.349Z,85.36
2018-07-10T02:56:19.586Z,84.93
2018-07-10T02:56:50.877Z,85.08
2018-07-10T02:57:22.065Z,84.74
2018-07-10T02:57:53.249Z,85.07
2018-07-10T02:58:24.481Z,85.18
2018-07-10T02:58:56.906Z,84.83
2018-07-10T02:59:28.160Z,84.86
2018-07-10T02:59:59.344Z,84.78
2018-07-10T03:00:30.548Z,84.86
2018-07-10T03:01:01.725Z,85.25
2018-07-10T03:01:32.954Z,85.01
2018-07-10T03:02:04.198Z,84.62
2018-07-10T03:02:35.457Z,85.07
2018-07-10T03:03:06.704Z,84.58
2018-07-10T03:03:37.970Z,84.87
2018-07-10T03:04:09.215Z,84.31
2018-07-10T03:04:40.502Z,85.02
2018-07-10T03:05:11.709Z,84.30
2018-07-10T03:05:42.894Z,84.87
2018-07-10T03:06:14.082Z,84.89
2018-07-10T03:06:45.313Z,85.38
2018-07-10T03:07:16.904Z,84.79
2018-07-10T03:07:48.076Z,84.82
2018-07-10T03:08:19.248Z,85.30
2018-07-10T03:08:50.422Z,85.38
2018-07-10T03:09:21.596Z,84.99
2018-07-10T03:09:52.857Z,85.54
2018-07-10T03:10:24.043Z,84.87
2018-07-10T03:10:55.269Z,85.25
2018-07-10T03:11:26.497Z,84.74
2018-07-10T03:11:57.689Z,85.28
2018-07-10T03:12:28.864Z,85.39
2018-07-10T03:13:00.041Z,85.39
2018-07-10T03:13:31.236Z,85.00
2018-07-10T03:14:02.473Z,85.51
2018-07-10T03:14:33.669Z,84.78
2018-07-10T03:15:04.899Z,84.99
2018-07-10T03:15:36.077Z,84.72
2018-07-10T03:16:07.337Z,84.77
2018-07-10T03:16:38.594Z,85.00
2018-07-10T03:17:09.773Z,84.91
2018-07-10T03:17:40.955Z,84.85
2018-07-10T03:18:12.177Z,84.66
2018-07-10T03:18:43.433Z,84.08
2018-07-10T03:19:14.617Z,84.53
2018-07-10T03:19:45.792Z,84.92
2018-07-10T03:20:16.980Z,84.23
2018-07-10T03:20:48.153Z,84.81
2018-07-10T03:21:19.395Z,84.36
2018-07-10T03:21:50.631Z,84.98
2018-07-10T03:22:21.866Z,84.79
2018-07-10T03:22:53.109Z,84.48
2018-07-10T03:23:24.349Z,84.60
2018-07-10T03:23:55.578Z,85.25
2018-07-10T03:24:26.771Z,84.85
2018-07-10T03:24:58.553Z,84.66
2018-07-10T03:25:29.777Z,84.73
2018-07-10T03:26:01.049Z,85.24
2018-07-10T03:26:32.232Z,84.98
2018-07-10T03:27:03.440Z,85.03
2018-07-10T03:27:34.674Z,85.17
2018-07-10T03:28:05.909Z,84.83
2018-07-10T03:28:37.171Z,84.63
2018-07-10T03:29:08.425Z,84.94
2018-07-10T03:29:39.632Z,84.61
2018-07-10T03:30:10.876Z,84.78
2018-07-10T03:30:42.075Z,83.47
2018-07-10T03:31:13.353Z,83.19
2018-07-10T03:31:44.544Z,81.69
2018-07-10T03:32:15.776Z,81.11
2018-07-10T03:32:46.972Z,80.41
2018-07-10T03:33:18.159Z,79.76
2018-07-10T03:33:49.397Z,77.42
2018-07-10T03:34:20.666Z,76.91
2018-07-10T03:34:51.905Z,75.90
2018-07-10T03:35:23.173Z,74.45
2018-07-10T03:35:54.392Z,74.45
2018-07-10T03:36:25.662Z,73.21
2018-07-10T03:36:56.856Z,73.10
2018-07-10T03:37:28.052Z,72.45
2018-07-10T03:37:59.228Z,71.71
2018-07-10T03:38:30.465Z,71.67
2018-07-10T03:39:01.695Z,70.67
2018-07-10T03:39:32.957Z,71.57
2018-07-10T03:40:04.184Z,71.67
2018-07-10T03:40:35.377Z,72.88
2018-07-10T03:41:06.556Z,73.22
2018-07-10T03:41:37.788Z,73.04
2018-07-10T03:42:08.969Z,72.62
2018-07-10T03:42:40.148Z,72.34
2018-07-10T03:43:11.327Z,72.76
2018-07-10T03:43:42.515Z,72.83
2018-07-10T03:44:13.742Z,73.50
2018-07-10T03:44:44.932Z,73.33
2018-07-10T03:45:16.180Z,74.14
2018-07-10T03:45:47.388Z,75.35
2018-07-10T03:46:18.556Z,75.51
2018-07-10T03:46:49.797Z,76.08
2018-07-10T03:47:21.033Z,76.08
2018-07-10T03:47:52.232Z,77.26
2018-07-10T03:48:23.412Z,77.76
2018-07-10T03:48:54.593Z,78.18
2018-07-10T03:49:25.784Z,78.00
2018-07-10T03:49:56.973Z,79.40
2018-07-10T03:50:28.196Z,79.25
2018-07-10T03:50:59.372Z,79.94
2018-07-10T03:51:30.561Z,80.23
2018-07-10T03:52:04.546Z,80.00
2018-07-10T03:52:35.753Z,80.10
2018-07-10T03:53:07.551Z,80.62
2018-07-10T03:53:38.738Z,81.17
2018-07-10T03:54:09.973Z,81.15
2018-07-10T03:54:41.168Z,79.66
2018-07-10T03:55:12.346Z,79.62
2018-07-10T03:55:43.585Z,80.32
2018-07-10T03:56:14.777Z,80.19
2018-07-10T03:56:46.024Z,79.68
2018-07-10T03:57:17.261Z,79.84
2018-07-10T03:57:48.495Z,79.88
2018-07-10T03:58:19.680Z,80.18
2018-07-10T03:58:50.909Z,79.67
2018-07-10T03:59:22.100Z,78.89
2018-07-10T03:59:53.286Z,79.05
2018-07-10T04:00:24.481Z,78.27
2018-07-10T04:00:55.786Z,79.07
2018-07-10T04:01:27.044Z,78.23
2018-07-10T04:01:58.249Z,79.14
2018-07-10T04:02:30.181Z,78.97
2018-07-10T04:03:01.374Z,79.45
2018-07-10T04:03:32.630Z,78.93
2018-07-10T04:04:03.867Z,78.91
2018-07-10T04:04:35.057Z,78.07
2018-07-10T04:05:06.228Z,78.03
2018-07-10T04:05:37.457Z,77.62
2018-07-10T04:06:09.269Z,77.66
2018-07-10T04:06:40.512Z,76.31
2018-07-10T04:07:11.759Z,76.25
2018-07-10T04:07:43.064Z,76.84
2018-07-10T04:08:14.280Z,75.92
2018-07-10T04:08:45.456Z,74.74
2018-07-10T04:09:16.689Z,74.05
2018-07-10T04:09:47.925Z,73.33
2018-07-10T04:10:19.104Z,71.75
2018-07-10T04:10:50.386Z,70.45
2018-07-10T04:11:21.574Z,69.70
2018-07-10T04:11:52.781Z,68.68
2018-07-10T04:12:23.960Z,67.38
2018-07-10T04:12:55.181Z,64.84
2018-07-10T04:13:26.343Z,65.82
2018-07-10T04:13:57.520Z,65.81
2018-07-10T04:14:28.695Z,66.90
2018-07-10T04:14:59.940Z,67.52
2018-07-10T04:15:31.125Z,67.40
2018-07-10T04:16:02.323Z,67.24
2018-07-10T04:16:33.513Z,67.72
2018-07-10T04:17:04.716Z,68.73
2018-07-10T04:17:35.889Z,68.95
2018-07-10T04:18:07.100Z,68.36
2018-07-10T04:18:38.273Z,68.45
2018-07-10T04:19:09.493Z,69.55
2018-07-10T04:19:40.668Z,69.40
2018-07-10T04:20:11.876Z,69.19
2018-07-10T04:20:43.049Z,69.23
2018-07-10T04:21:14.224Z,69.69
2018-07-10T04:21:45.406Z,69.70
2018-07-10T04:22:16.591Z,68.40
2018-07-10T04:22:47.822Z,68.03
2018-07-10T04:23:19.003Z,68.56
2018-07-10T04:23:50.170Z,68.15
2018-07-10T04:24:21.465Z,68.16
2018-07-10T04:24:52.688Z,68.32
2018-07-10T04:25:23.865Z,68.41
2018-07-10T04:25:55.052Z,66.95
2018-07-10T04:26:26.232Z,66.42
2018-07-10T04:26:57.421Z,65.87
2018-07-10T04:27:28.592Z,64.84
2018-07-10T04:27:59.809Z,63.88
2018-07-10T04:28:30.996Z,63.36
2018-07-10T04:29:02.255Z,63.01
2018-07-10T04:29:33.537Z,63.03
2018-07-10T04:30:04.758Z,61.11
2018-07-10T04:30:35.936Z,61.93
2018-07-10T04:31:07.107Z,62.47
2018-07-10T04:31:38.345Z,62.56
2018-07-10T04:32:09.578Z,62.47
2018-07-10T04:32:40.849Z,62.80
2018-07-10T04:33:12.073Z,61.48
2018-07-10T04:33:43.297Z,61.40
2018-07-10T04:34:14.520Z,60.24
2018-07-10T04:34:45.688Z,56.79
2018-07-10T04:35:16.944Z,57.01
2018-07-10T04:35:48.208Z,57.72
2018-07-10T04:36:19.382Z,58.09
2018-07-10T04:36:50.554Z,57.56
2018-07-10T04:37:21.724Z,57.62
2018-07-10T04:37:52.897Z,58.87
2018-07-10T04:38:24.074Z,59.56
2018-07-10T04:38:55.259Z,58.76
2018-07-10T04:39:26.447Z,59.72
2018-07-10T04:39:57.659Z,59.10
2018-07-10T04:40:28.873Z,56.69
2018-07-10T04:41:00.089Z,56.43
2018-07-10T04:41:31.260Z,55.27
2018-07-10T04:42:02.489Z,53.87
2018-07-10T04:42:33.676Z,52.58
2018-07-10T04:43:04.898Z,52.17
2018-07-10T04:43:36.074Z,53.52
2018-07-10T04:44:07.302Z,52.12
2018-07-10T04:44:38.488Z,52.13
2018-07-10T04:45:09.664Z,52.25
2018-07-10T04:45:40.873Z,52.75
2018-07-10T04:46:12.062Z,53.87
2018-07-10T04:46:43.290Z,52.97
2018-07-10T04:47:14.581Z,54.14
2018-07-10T04:47:45.809Z,54.37
2018-07-10T04:48:16.988Z,56.28
2018-07-10T04:48:48.158Z,56.75
2018-07-10T04:49:19.456Z,57.10
2018-07-10T04:49:50.623Z,57.95
2018-07-10T04:50:21.800Z,58.54
2018-07-10T04:50:53.023Z,59.64
2018-07-10T04:51:24.280Z,59.21
2018-07-10T04:51:55.533Z,59.75
2018-07-10T04:52:26.714Z,59.62
2018-07-10T04:52:57.881Z,60.53
2018-07-10T04:53:29.054Z,61.34
2018-07-10T04:54:00.225Z,62.11
2018-07-10T04:54:31.407Z,61.03
2018-07-10T04:55:02.633Z,61.18
2018-07-10T04:55:33.894Z,62.24
2018-07-10T04:56:05.113Z,63.52
2018-07-10T04:56:36.299Z,63.10
2018-07-10T04:57:07.460Z,63.72
2018-07-10T04:57:38.734Z,64.47
2018-07-10T04:58:09.900Z,64.31
2018-07-10T04:58:41.117Z,63.80
2018-07-10T04:59:12.349Z,64.89
2018-07-10T04:59:43.525Z,65.53
2018-07-10T05:00:14.697Z,63.65
2018-07-10T05:00:45.873Z,64.19
2018-07-10T05:01:17.085Z,63.30
2018-07-10T05:01:48.375Z,62.00
2018-07-10T05:02:19.567Z,61.69
2018-07-10T05:02:50.788Z,60.26
2018-07-10T05:03:22.009Z,58.03
2018-07-10T05:03:53.254Z,58.01
2018-07-10T05:04:27.232Z,56.35
2018-07-10T05:04:58.424Z,56.71
2018-07-10T05:05:29.641Z,55.67
2018-07-10T05:06:00.857Z,55.61
2018-07-10T05:06:32.033Z,54.99
2018-07-10T05:07:03.218Z,53.42
2018-07-10T05:07:34.446Z,53.86
2018-07-10T05:08:05.633Z,54.69
2018-07-10T05:08:36.852Z,53.77
2018-07-10T05:09:08.034Z,53.98
2018-07-10T05:09:39.246Z,53.28
2018-07-10T05:10:10.456Z,52.05
2018-07-10T05:10:41.634Z,52.03
2018-07-10T05:11:12.900Z,50.42
2018-07-10T05:11:44.131Z,51.14
2018-07-10T05:12:15.657Z,50.24
2018-07-10T05:12:46.898Z,50.43
2018-07-10T05:13:18.075Z,48.32
2018-07-10T05:13:49.254Z,48.41
2018-07-10T05:14:20.482Z,48.47
2018-07-10T05:14:51.700Z,48.35
2018-07-10T05:15:22.887Z,48.22
2018-07-10T05:15:54.063Z,48.08
2018-07-10T05:16:25.253Z,47.58
2018-07-10T05:16:56.425Z,47.24
2018-07-10T05:17:27.684Z,45.67
2018-07-10T05:17:58.869Z,46.19
2018-07-10T05:18:30.098Z,46.73
2018-07-10T05:19:01.286Z,46.37
2018-07-10T05:19:32.548Z,46.56
2018-07-10T05:20:03.745Z,45.78
2018-07-10T05:20:34.978Z,45.51
2018-07-10T05:21:06.221Z,46.10
2018-07-10T05:21:37.417Z,45.98
2018-07-10T05:22:08.620Z,45.87
2018-07-10T05:22:39.850Z,45.80
2018-07-10T05:23:11.081Z,44.39
2018-07-10T05:23:42.341Z,44.20
2018-07-10T05:24:13.516Z,44.38
2018-07-10T05:24:44.702Z,44.49
2018-07-10T05:25:16.888Z,44.31
2018-07-10T05:25:48.068Z,44.73
2018-07-10T05:26:19.308Z,43.92
2018-07-10T05:26:50.531Z,44.41
2018-07-10T05:27:21.721Z,44.08
2018-07-10T05:27:52.913Z,44.52
2018-07-10T05:28:24.093Z,44.53
2018-07-10T05:28:55.347Z,44.61
2018-07-10T05:29:26.613Z,44.35
2018-07-10T05:29:57.801Z,43.53
2018-07-10T05:30:28.982Z,44.29
2018-07-10T05:31:00.168Z,43.76
2018-07-10T05:31:31.400Z,43.71
2018-07-10T05:32:02.616Z,44.34
2018-07-10T05:32:33.846Z,44.90
2018-07-10T05:33:05.038Z,45.51
2018-07-10T05:33:36.227Z,44.61
2018-07-10T05:34:07.466Z,44.00
2018-07-10T05:34:38.721Z,44.02
2018-07-10T05:35:09.905Z,44.17
2018-07-10T05:35:41.669Z,45.10
2018-07-10T05:36:13.676Z,45.46
2018-07-10T05:36:44.907Z,44.60
2018-07-10T05:37:16.167Z,45.17
2018-07-10T05:37:47.311Z,44.59
2018-07-10T05:38:18.634Z,45.08
2018-07-10T05:38:49.904Z,45.52
2018-07-10T05:39:21.162Z,46.12
2018-07-10T05:39:52.366Z,46.32
2018-07-10T05:40:23.547Z,47.53
2018-07-10T05:40:54.719Z,47.47
2018-07-10T05:41:25.896Z,47.59
2018-07-10T05:41:57.185Z,47.84
2018-07-10T05:42:28.597Z,47.88
2018-07-10T05:42:59.847Z,48.98
2018-07-10T05:43:31.052Z,49.10
2018-07-10T05:44:02.241Z,49.42
2018-07-10T05:44:33.416Z,49.57
2018-07-10T05:45:04.638Z,49.56
2018-07-10T05:45:35.916Z,49.68
2018-07-10T05:46:07.141Z,49.46
2018-07-10T05:46:38.376Z,50.46
2018-07-10T05:47:09.589Z,50.52
2018-07-10T05:47:40.876Z,51.33
2018-07-10T05:48:12.124Z,51.46
2018-07-10T05:48:43.390Z,51.79
2018-07-10T05:49:14.616Z,51.64
2018-07-10T05:49:45.880Z,51.01
2018-07-10T05:50:17.085Z,51.44
2018-07-10T05:50:48.888Z,51.07
2018-07-10T05:51:20.956Z,50.50
2018-07-10T05:51:52.305Z,51.21
2018-07-10T05:52:23.497Z,50.90
2018-07-10T05:52:54.799Z,49.25
2018-07-10T05:53:25.979Z,50.32
2018-07-10T05:53:57.244Z,49.26
2018-07-10T05:54:28.465Z,51.01
2018-07-10T05:55:00.295Z,50.68
2018-07-10T05:55:31.529Z,50.54
2018-07-10T05:56:02.778Z,49.35
2018-07-10T05:56:34.040Z,50.61
2018-07-10T05:57:05.276Z,51.05
2018-07-10T05:57:36.523Z,51.10
2018-07-10T05:58:08.706Z,51.37
2018-07-10T05:58:39.975Z,49.87
2018-07-10T05:59:11.852Z,50.71
2018-07-10T05:59:43.108Z,51.18
2018-07-10T06:00:14.401Z,49.67
2018-07-10T06:00:45.608Z,50.09
2018-07-10T06:01:16.801Z,51.20
2018-07-10T06:01:48.026Z,51.12
2018-07-10T06:02:19.242Z,51.27
2018-07-10T06:02:50.477Z,51.83
2018-07-10T06:03:21.736Z,50.90
2018-07-10T06:03:52.932Z,51.09
2018-07-10T06:04:24.108Z,50.82
2018-07-10T06:04:55.294Z,50.82
2018-07-10T06:05:26.472Z,51.06
2018-07-10T06:05:57.678Z,51.66
2018-07-10T06:06:28.926Z,52.27
2018-07-10T06:07:00.157Z,51.61
2018-07-10T06:07:31.390Z,51.56
2018-07-10T06:08:02.581Z,51.49
2018-07-10T06:08:33.821Z,50.93
2018-07-10T06:09:05.054Z,51.39
2018-07-10T06:09:36.288Z,51.43
2018-07-10T06:10:07.504Z,51.84
2018-07-10T06:10:38.694Z,52.08
2018-07-10T06:11:09.913Z,51.21
2018-07-10T06:11:41.186Z,51.62
2018-07-10T06:12:13.069Z,51.36
2018-07-10T06:12:44.274Z,51.88
2018-07-10T06:13:15.510Z,51.67
2018-07-10T06:13:46.704Z,52.02
2018-07-10T06:14:17.880Z,51.80
2018-07-10T06:14:49.110Z,51.99
2018-07-10T06:15:20.308Z,51.72
2018-07-10T06:15:51.497Z,51.79
2018-07-10T06:16:22.779Z,52.65
2018-07-10T06:16:54.045Z,51.55
2018-07-10T06:17:25.241Z,51.73
2018-07-10T06:17:56.420Z,52.04
2018-07-10T06:18:27.627Z,51.61
2018-07-10T06:18:58.809Z,51.07
2018-07-10T06:19:30.139Z,50.56
2018-07-10T06:20:01.386Z,51.65
2018-07-10T06:20:32.575Z,50.69
2018-07-10T06:21:04.784Z,51.36
2018-07-10T06:21:36.046Z,51.12
2018-07-10T06:22:07.272Z,50.43
2018-07-10T06:22:38.506Z,51.00
2018-07-10T06:23:09.689Z,50.19
2018-07-10T06:23:40.867Z,50.72
2018-07-10T06:24:12.052Z,51.22
2018-07-10T06:24:43.236Z,50.53
2018-07-10T06:25:14.486Z,50.71
2018-07-10T06:25:45.710Z,50.87
2018-07-10T06:26:16.895Z,49.61
2018-07-10T06:26:48.162Z,50.74
2018-07-10T06:27:19.354Z,50.83
2018-07-10T06:27:50.533Z,51.85
2018-07-10T06:28:21.752Z,50.61
2018-07-10T06:28:52.928Z,51.07
2018-07-10T06:29:24.118Z,51.40
2018-07-10T06:29:55.313Z,50.50
2018-07-10T06:30:26.612Z,50.69
2018-07-10T06:30:57.782Z,50.43
2018-07-10T06:31:28.998Z,50.29
2018-07-10T06:32:00.230Z,50.58
2018-07-10T06:32:31.491Z,51.15
2018-07-10T06:33:02.680Z,51.29
2018-07-10T06:33:33.904Z,49.84
2018-07-10T06:34:05.093Z,50.91
2018-07-10T06:34:36.268Z,51.72
2018-07-10T06:35:07.485Z,51.75
2018-07-10T06:35:39.759Z,53.23
2018-07-10T06:36:10.998Z,52.51
2018-07-10T06:36:42.287Z,52.38
2018-07-10T06:37:13.489Z,52.76
2018-07-10T06:37:44.669Z,52.53
2018-07-10T06:38:15.848Z,53.74
2018-07-10T06:38:47.592Z,52.79
2018-07-10T06:39:18.823Z,53.48
2018-07-10T06:39:50.080Z,52.33
2018-07-10T06:40:21.257Z,53.30
2018-07-10T06:40:52.437Z,53.29
2018-07-10T06:41:23.725Z,52.92
2018-07-10T06:41:54.928Z,52.51
2018-07-10T06:42:26.113Z,52.76